sensor_id;sensor_type;location;lat;lon;timestamp;pressure;altitude;pressure_sealevel;temperature;humidity
2549;BME280;1284;53.520;10.248;2023-02-02T00:00:08;100305.56;;;6.69;100.00
2549;BME280;1284;53.520;10.248;2023-02-02T00:02:35;100309.63;;;6.38;100.00
2549;BME280;1284;53.520;10.248;2023-02-02T00:05:01;100301.44;;;6.71;100.00
2549;BME280;1284;53.520;10.248;2023-02-02T00:07:27;100306.75;;;6.83;100.00
2549;BME280;1284;53.520;10.248;2023-02-02T00:09:52;100312.88;;;6.84;100.00
2549;BME280;1284;53.520;10.248;2023-02-02T00:12:17;100316.94;;;6.66;100.00
2549;BME280;1284;53.520;10.248;2023-02-02T00:14:43;100314.56;;;6.76;100.00
2549;BME280;1284;53.520;10.248;2023-02-02T00:17:09;100308.44;;;6.76;100.00
2549;BME280;1284;53.520;10.248;2023-02-02T00:19:35;100319.94;;;6.76;100.00
2549;BME280;1284;53.520;10.248;2023-02-02T00:22:01;100316.16;;;6.65;100.00
2549;BME280;1284;53.520;10.248;2023-02-02T00:24:26;100317.88;;;6.97;100.00
2549;BME280;1284;53.520;10.248;2023-02-02T00:26:55;100322.84;;;6.71;100.00
2549;BME280;1284;53.520;10.248;2023-02-02T00:29:28;100314.22;;;6.78;100.00
2549;BME280;1284;53.520;10.248;2023-02-02T00:31:54;100319.38;;;6.83;100.00
2549;BME280;1284;53.520;10.248;2023-02-02T00:34:20;100314.56;;;6.88;100.00
2549;BME280;1284;53.520;10.248;2023-02-02T00:36:47;100329.38;;;6.86;100.00
2549;BME280;1284;53.520;10.248;2023-02-02T00:39:19;100328.66;;;6.73;100.00
2549;BME280;1284;53.520;10.248;2023-02-02T03:50:43;100605.88;;;6.66;100.00
2549;BME280;1284;53.520;10.248;2023-02-02T03:53:08;100609.41;;;6.58;100.00
2549;BME280;1284;53.520;10.248;2023-02-02T03:55:33;100616.28;;;6.79;100.00
2549;BME280;1284;53.520;10.248;2023-02-02T03:57:59;100614.53;;;6.95;100.00
2549;BME280;1284;53.520;10.248;2023-02-02T04:00:24;100614.81;;;6.82;100.00
2549;BME280;1284;53.520;10.248;2023-02-02T04:02:50;100617.31;;;6.87;100.00
2549;BME280;1284;53.520;10.248;2023-02-02T04:05:15;100619.34;;;7.02;100.00
2549;BME280;1284;53.520;10.248;2023-02-02T04:07:41;100632.38;;;6.91;100.00
2549;BME280;1284;53.520;10.248;2023-02-02T04:10:06;100628.75;;;7.08;100.00
2549;BME280;1284;53.520;10.248;2023-02-02T04:12:32;100628.94;;;6.91;100.00
2549;BME280;1284;53.520;10.248;2023-02-02T04:14:57;100623.59;;;6.70;100.00
2549;BME280;1284;53.520;10.248;2023-02-02T04:17:23;100636.66;;;6.72;100.00
2549;BME280;1284;53.520;10.248;2023-02-02T04:19:48;100638.03;;;6.57;100.00
2549;BME280;1284;53.520;10.248;2023-02-02T04:22:14;100648.69;;;6.66;100.00
2549;BME280;1284;53.520;10.248;2023-02-02T04:24:39;100636.44;;;6.44;100.00
2549;BME280;1284;53.520;10.248;2023-02-02T04:27:05;100650.25;;;6.46;100.00
2549;BME280;1284;53.520;10.248;2023-02-02T04:29:30;100646.78;;;6.66;100.00
2549;BME280;1284;53.520;10.248;2023-02-02T04:31:55;100656.63;;;6.74;100.00
2549;BME280;1284;53.520;10.248;2023-02-02T04:34:21;100664.06;;;6.69;100.00
2549;BME280;1284;53.520;10.248;2023-02-02T04:36:47;100668.09;;;6.75;100.00
2549;BME280;1284;53.520;10.248;2023-02-02T04:39:12;100673.25;;;6.80;100.00
2549;BME280;1284;53.520;10.248;2023-02-02T04:41:38;100691.06;;;6.76;100.00
2549;BME280;1284;53.520;10.248;2023-02-02T05:10:27;100698.25;;;6.84;100.00
2549;BME280;1284;53.520;10.248;2023-02-02T05:12:54;100706.28;;;6.84;100.00
2549;BME280;1284;53.520;10.248;2023-02-02T05:15:20;100702.56;;;6.76;100.00
2549;BME280;1284;53.520;10.248;2023-02-02T05:17:46;100702.50;;;6.64;100.00
2549;BME280;1284;53.520;10.248;2023-02-02T05:20:12;100701.59;;;6.81;100.00
2549;BME280;1284;53.520;10.248;2023-02-02T05:22:38;100712.09;;;6.65;100.00
2549;BME280;1284;53.520;10.248;2023-02-02T05:25:05;100706.75;;;6.65;100.00
2549;BME280;1284;53.520;10.248;2023-02-02T05:27:30;100707.31;;;6.91;100.00
2549;BME280;1284;53.520;10.248;2023-02-02T05:29:56;100716.28;;;6.75;100.00
2549;BME280;1284;53.520;10.248;2023-02-02T05:32:21;100713.66;;;6.87;100.00
2549;BME280;1284;53.520;10.248;2023-02-02T05:34:47;100722.00;;;6.85;100.00
2549;BME280;1284;53.520;10.248;2023-02-02T05:37:12;100727.63;;;6.92;100.00
2549;BME280;1284;53.520;10.248;2023-02-02T05:39:38;100722.53;;;6.79;100.00
2549;BME280;1284;53.520;10.248;2023-02-02T05:42:03;100739.50;;;6.62;100.00
2549;BME280;1284;53.520;10.248;2023-02-02T05:44:29;100721.13;;;6.31;100.00
2549;BME280;1284;53.520;10.248;2023-02-02T05:46:54;100731.50;;;6.33;100.00
2549;BME280;1284;53.520;10.248;2023-02-02T05:49:20;100735.03;;;6.25;100.00
2549;BME280;1284;53.520;10.248;2023-02-02T05:51:47;100739.53;;;6.33;100.00
2549;BME280;1284;53.520;10.248;2023-02-02T05:54:14;100730.53;;;6.37;100.00
2549;BME280;1284;53.520;10.248;2023-02-02T05:56:46;100747.97;;;6.44;100.00
2549;BME280;1284;53.520;10.248;2023-02-02T05:59:11;100754.97;;;6.57;100.00
2549;BME280;1284;53.520;10.248;2023-02-02T06:01:37;100749.75;;;6.31;100.00
2549;BME280;1284;53.520;10.248;2023-02-02T06:04:02;100748.19;;;6.59;100.00
2549;BME280;1284;53.520;10.248;2023-02-02T06:06:28;100751.53;;;6.56;100.00
2549;BME280;1284;53.520;10.248;2023-02-02T06:08:54;100759.25;;;6.49;100.00
2549;BME280;1284;53.520;10.248;2023-02-02T06:11:19;100775.44;;;6.53;100.00
2549;BME280;1284;53.520;10.248;2023-02-02T06:13:45;100773.72;;;6.77;100.00
2549;BME280;1284;53.520;10.248;2023-02-02T06:16:10;100762.59;;;6.67;100.00
2549;BME280;1284;53.520;10.248;2023-02-02T06:18:36;100769.50;;;6.47;100.00
2549;BME280;1284;53.520;10.248;2023-02-02T06:21:04;100785.69;;;6.21;100.00
2549;BME280;1284;53.520;10.248;2023-02-02T06:23:31;100781.09;;;6.30;100.00
2549;BME280;1284;53.520;10.248;2023-02-02T06:25:57;100783.34;;;6.49;100.00
2549;BME280;1284;53.520;10.248;2023-02-02T06:28:23;100782.47;;;6.66;100.00
2549;BME280;1284;53.520;10.248;2023-02-02T06:30:49;100791.56;;;6.44;100.00
2549;BME280;1284;53.520;10.248;2023-02-02T06:33:14;100791.25;;;6.37;100.00
2549;BME280;1284;53.520;10.248;2023-02-02T06:35:40;100803.31;;;6.52;100.00
2549;BME280;1284;53.520;10.248;2023-02-02T06:38:05;100797.25;;;6.34;100.00
2549;BME280;1284;53.520;10.248;2023-02-02T06:40:31;100800.06;;;6.67;100.00
2549;BME280;1284;53.520;10.248;2023-02-02T06:42:57;100801.25;;;6.78;100.00
2549;BME280;1284;53.520;10.248;2023-02-02T06:45:24;100809.38;;;6.61;100.00
2549;BME280;1284;53.520;10.248;2023-02-02T06:47:49;100821.47;;;6.87;100.00
2549;BME280;1284;53.520;10.248;2023-02-02T06:50:15;100813.31;;;6.63;100.00
2549;BME280;1284;53.520;10.248;2023-02-02T06:52:51;100829.25;;;6.51;100.00
2549;BME280;1284;53.520;10.248;2023-02-02T06:55:17;100825.06;;;6.42;100.00
2549;BME280;1284;53.520;10.248;2023-02-02T06:57:42;100831.34;;;6.75;100.00
2549;BME280;1284;53.520;10.248;2023-02-02T07:00:08;100829.69;;;6.62;100.00
2549;BME280;1284;53.520;10.248;2023-02-02T07:02:34;100823.56;;;6.61;100.00
2549;BME280;1284;53.520;10.248;2023-02-02T07:05:00;100824.47;;;6.65;100.00
2549;BME280;1284;53.520;10.248;2023-02-02T07:07:26;100831.72;;;6.85;100.00
2549;BME280;1284;53.520;10.248;2023-02-02T07:09:52;100837.09;;;6.85;100.00
2549;BME280;1284;53.520;10.248;2023-02-02T07:12:17;100843.22;;;6.57;100.00
2549;BME280;1284;53.520;10.248;2023-02-02T07:14:44;100848.09;;;6.63;100.00
2549;BME280;1284;53.520;10.248;2023-02-02T07:17:10;100854.47;;;6.50;100.00
2549;BME280;1284;53.520;10.248;2023-02-02T07:19:35;100853.09;;;6.65;100.00
2549;BME280;1284;53.520;10.248;2023-02-02T07:22:01;100858.19;;;6.58;100.00
2549;BME280;1284;53.520;10.248;2023-02-02T07:24:27;100867.03;;;6.50;100.00
2549;BME280;1284;53.520;10.248;2023-02-02T07:26:53;100864.38;;;6.50;100.00
2549;BME280;1284;53.520;10.248;2023-02-02T07:29:18;100876.34;;;6.44;100.00
2549;BME280;1284;53.520;10.248;2023-02-02T07:31:43;100880.41;;;6.50;100.00
2549;BME280;1284;53.520;10.248;2023-02-02T07:34:09;100883.88;;;6.50;100.00
2549;BME280;1284;53.520;10.248;2023-02-02T07:36:34;100888.59;;;6.45;100.00
2549;BME280;1284;53.520;10.248;2023-02-02T07:39:00;100878.28;;;6.34;100.00
2549;BME280;1284;53.520;10.248;2023-02-02T07:41:28;100889.84;;;6.47;100.00
2549;BME280;1284;53.520;10.248;2023-02-02T07:43:54;100885.66;;;6.37;100.00
2549;BME280;1284;53.520;10.248;2023-02-02T07:46:20;100898.34;;;6.49;100.00
2549;BME280;1284;53.520;10.248;2023-02-02T07:48:46;100900.81;;;6.63;100.00
2549;BME280;1284;53.520;10.248;2023-02-02T07:51:14;100908.66;;;6.68;100.00
2549;BME280;1284;53.520;10.248;2023-02-02T07:53:44;100914.91;;;6.72;100.00
2549;BME280;1284;53.520;10.248;2023-02-02T07:56:28;100918.38;;;6.72;100.00
2549;BME280;1284;53.520;10.248;2023-02-02T07:58:54;100930.34;;;6.75;100.00
2549;BME280;1284;53.520;10.248;2023-02-02T08:01:24;100924.88;;;6.71;100.00
2549;BME280;1284;53.520;10.248;2023-02-02T08:03:51;100938.38;;;6.75;100.00
2549;BME280;1284;53.520;10.248;2023-02-02T08:06:28;100934.16;;;6.65;100.00
2549;BME280;1284;53.520;10.248;2023-02-02T08:08:55;100937.50;;;6.91;100.00
2549;BME280;1284;53.520;10.248;2023-02-02T08:13:52;100944.91;;;6.94;100.00
2549;BME280;1284;53.520;10.248;2023-02-02T08:16:18;100951.44;;;7.05;100.00
2549;BME280;1284;53.520;10.248;2023-02-02T08:18:43;100953.94;;;7.10;100.00
2549;BME280;1284;53.520;10.248;2023-02-02T08:21:11;100956.31;;;7.32;100.00
2549;BME280;1284;53.520;10.248;2023-02-02T08:23:51;100960.75;;;7.28;100.00
2549;BME280;1284;53.520;10.248;2023-02-02T08:26:18;100959.56;;;7.17;100.00
2549;BME280;1284;53.520;10.248;2023-02-02T08:28:46;100973.00;;;7.09;100.00
2549;BME280;1284;53.520;10.248;2023-02-02T08:31:24;100967.53;;;7.26;100.00
2549;BME280;1284;53.520;10.248;2023-02-02T08:33:51;100977.88;;;7.36;100.00
2549;BME280;1284;53.520;10.248;2023-02-02T08:36:21;100980.97;;;7.47;100.00
2549;BME280;1284;53.520;10.248;2023-02-02T08:38:47;100978.53;;;7.33;100.00
2549;BME280;1284;53.520;10.248;2023-02-02T08:41:16;100984.88;;;7.28;100.00
2549;BME280;1284;53.520;10.248;2023-02-02T08:43:42;100992.31;;;7.23;100.00
2549;BME280;1284;53.520;10.248;2023-02-02T08:46:10;100994.16;;;7.31;100.00
2549;BME280;1284;53.520;10.248;2023-02-02T08:48:36;100998.53;;;7.36;100.00
2549;BME280;1284;53.520;10.248;2023-02-02T08:51:03;100998.97;;;7.38;100.00
2549;BME280;1284;53.520;10.248;2023-02-02T08:53:28;100997.13;;;7.59;100.00
2549;BME280;1284;53.520;10.248;2023-02-02T08:58:31;100999.63;;;8.05;100.00
2549;BME280;1284;53.520;10.248;2023-02-02T09:01:10;101003.22;;;8.21;99.07
2549;BME280;1284;53.520;10.248;2023-02-02T09:03:37;101007.44;;;8.31;97.57
2549;BME280;1284;53.520;10.248;2023-02-02T09:06:10;101015.91;;;8.53;97.19
2549;BME280;1284;53.520;10.248;2023-02-02T09:08:36;101023.00;;;8.82;96.50
2549;BME280;1284;53.520;10.248;2023-02-02T09:11:06;101025.91;;;8.89;95.27
2549;BME280;1284;53.520;10.248;2023-02-02T09:13:33;101023.03;;;8.94;94.49
2549;BME280;1284;53.520;10.248;2023-02-02T09:16:00;101033.22;;;9.13;93.79
2549;BME280;1284;53.520;10.248;2023-02-02T09:18:25;101030.75;;;9.20;93.10
2549;BME280;1284;53.520;10.248;2023-02-02T09:20:51;101033.13;;;9.21;92.44
2549;BME280;1284;53.520;10.248;2023-02-02T09:23:16;101032.44;;;9.12;92.01
2549;BME280;1284;53.520;10.248;2023-02-02T09:25:42;101035.22;;;9.16;92.24
2549;BME280;1284;53.520;10.248;2023-02-02T09:28:07;101045.09;;;9.24;92.17
2549;BME280;1284;53.520;10.248;2023-02-02T09:30:33;101049.56;;;9.44;91.15
2549;BME280;1284;53.520;10.248;2023-02-02T09:32:58;101059.41;;;9.16;91.44
2549;BME280;1284;53.520;10.248;2023-02-02T09:35:23;101058.09;;;9.09;91.25
2549;BME280;1284;53.520;10.248;2023-02-02T09:37:49;101071.41;;;9.18;91.31
2549;BME280;1284;53.520;10.248;2023-02-02T09:40:17;101081.34;;;9.18;92.33
2549;BME280;1284;53.520;10.248;2023-02-02T09:45:31;101082.88;;;8.82;93.08
2549;BME280;1284;53.520;10.248;2023-02-02T09:53:22;101090.91;;;8.70;92.87
2549;BME280;1284;53.520;10.248;2023-02-02T09:55:52;101111.97;;;8.92;91.22
2549;BME280;1284;53.520;10.248;2023-02-02T09:58:23;101097.41;;;8.81;91.52
2549;BME280;1284;53.520;10.248;2023-02-02T10:03:40;101102.97;;;9.09;91.23
2549;BME280;1284;53.520;10.248;2023-02-02T10:06:32;101109.56;;;9.12;90.94
2549;BME280;1284;53.520;10.248;2023-02-02T10:11:38;101117.00;;;9.63;90.33
2549;BME280;1284;53.520;10.248;2023-02-02T10:14:16;101127.09;;;9.54;88.87
2549;BME280;1284;53.520;10.248;2023-02-02T10:16:42;101113.41;;;9.35;89.28
2549;BME280;1284;53.520;10.248;2023-02-02T10:19:10;101113.97;;;9.40;88.91
2549;BME280;1284;53.520;10.248;2023-02-02T10:24:18;101128.66;;;9.67;87.82
2549;BME280;1284;53.520;10.248;2023-02-02T10:26:47;101132.78;;;9.64;88.31
2549;BME280;1284;53.520;10.248;2023-02-02T10:32:20;101149.94;;;9.48;88.49
2549;BME280;1284;53.520;10.248;2023-02-02T10:45:56;101185.06;;;9.31;87.30
2549;BME280;1284;53.520;10.248;2023-02-02T10:48:26;101190.63;;;9.14;86.61
2549;BME280;1284;53.520;10.248;2023-02-02T10:51:00;101198.38;;;9.27;86.76
2549;BME280;1284;53.520;10.248;2023-02-02T10:53:28;101190.97;;;9.24;87.25
2549;BME280;1284;53.520;10.248;2023-02-02T10:55:59;101197.19;;;9.49;86.65
2549;BME280;1284;53.520;10.248;2023-02-02T10:58:45;101197.31;;;9.52;86.40
2549;BME280;1284;53.520;10.248;2023-02-02T11:01:12;101199.22;;;9.52;86.07
2549;BME280;1284;53.520;10.248;2023-02-02T11:03:42;101203.59;;;9.44;85.98
2549;BME280;1284;53.520;10.248;2023-02-02T11:06:10;101203.78;;;9.39;85.35
2549;BME280;1284;53.520;10.248;2023-02-02T11:08:55;101208.06;;;9.07;86.41
2549;BME280;1284;53.520;10.248;2023-02-02T11:11:37;101209.34;;;8.89;87.05
2549;BME280;1284;53.520;10.248;2023-02-02T11:16:36;101204.94;;;9.05;86.63
2549;BME280;1284;53.520;10.248;2023-02-02T11:19:21;101215.81;;;8.88;85.54
2549;BME280;1284;53.520;10.248;2023-02-02T11:21:53;101206.97;;;8.88;85.99
2549;BME280;1284;53.520;10.248;2023-02-02T11:24:23;101210.16;;;9.02;85.59
2549;BME280;1284;53.520;10.248;2023-02-02T11:27:06;101213.00;;;9.05;85.70
2549;BME280;1284;53.520;10.248;2023-02-02T11:32:17;101206.88;;;9.17;85.53
2549;BME280;1284;53.520;10.248;2023-02-02T11:34:42;101212.59;;;9.28;84.80
2549;BME280;1284;53.520;10.248;2023-02-02T11:37:10;101207.03;;;9.45;84.74
2549;BME280;1284;53.520;10.248;2023-02-02T11:39:40;101208.19;;;9.56;84.46
2549;BME280;1284;53.520;10.248;2023-02-02T11:42:16;101212.09;;;9.58;84.33
2549;BME280;1284;53.520;10.248;2023-02-02T11:44:48;101210.34;;;9.74;83.75
2549;BME280;1284;53.520;10.248;2023-02-02T11:47:19;101215.06;;;9.77;83.38
2549;BME280;1284;53.520;10.248;2023-02-02T11:49:45;101212.81;;;9.91;83.65
2549;BME280;1284;53.520;10.248;2023-02-02T11:52:18;101208.13;;;10.00;82.46
2549;BME280;1284;53.520;10.248;2023-02-02T11:54:54;101223.56;;;10.03;82.03
2549;BME280;1284;53.520;10.248;2023-02-02T11:57:23;101215.41;;;10.00;81.46
2549;BME280;1284;53.520;10.248;2023-02-02T12:00:04;101222.00;;;9.90;80.92
2549;BME280;1284;53.520;10.248;2023-02-02T12:02:31;101225.50;;;9.91;81.69
2549;BME280;1284;53.520;10.248;2023-02-02T12:05:34;101221.47;;;10.21;80.88
2549;BME280;1284;53.520;10.248;2023-02-02T12:08:00;101220.13;;;10.27;80.11
2549;BME280;1284;53.520;10.248;2023-02-02T12:10:50;101213.28;;;10.18;79.17
2549;BME280;1284;53.520;10.248;2023-02-02T12:13:48;101228.06;;;9.99;80.13
2549;BME280;1284;53.520;10.248;2023-02-02T12:19:06;101238.50;;;10.13;79.85
2549;BME280;1284;53.520;10.248;2023-02-02T12:24:29;101233.56;;;10.39;80.22
2549;BME280;1284;53.520;10.248;2023-02-02T12:32:57;101249.84;;;10.19;80.09
2549;BME280;1284;53.520;10.248;2023-02-02T12:35:57;101247.69;;;10.24;81.53
2549;BME280;1284;53.520;10.248;2023-02-02T12:43:41;101242.09;;;10.17;79.91
2549;BME280;1284;53.520;10.248;2023-02-02T12:54:50;101245.00;;;10.00;77.06
2549;BME280;1284;53.520;10.248;2023-02-02T12:57:55;101248.78;;;9.75;78.04
2549;BME280;1284;53.520;10.248;2023-02-02T13:00:38;101243.72;;;9.61;79.16
2549;BME280;1284;53.520;10.248;2023-02-02T13:06:16;101256.63;;;9.80;77.60
2549;BME280;1284;53.520;10.248;2023-02-02T13:09:35;101252.47;;;9.70;79.00
2549;BME280;1284;53.520;10.248;2023-02-02T13:11:51;101257.19;;;9.73;79.16
2549;BME280;1284;53.520;10.248;2023-02-02T13:14:32;101262.25;;;9.99;78.96
2549;BME280;1284;53.520;10.248;2023-02-02T13:17:06;101263.47;;;9.89;80.26
2549;BME280;1284;53.520;10.248;2023-02-02T13:19:49;101269.53;;;9.86;80.31
2549;BME280;1284;53.520;10.248;2023-02-02T13:22:38;101260.00;;;9.77;80.48
2549;BME280;1284;53.520;10.248;2023-02-02T13:25:13;101271.22;;;9.91;80.47
2549;BME280;1284;53.520;10.248;2023-02-02T13:27:42;101271.78;;;10.09;80.38
2549;BME280;1284;53.520;10.248;2023-02-02T13:30:24;101274.41;;;10.17;80.23
2549;BME280;1284;53.520;10.248;2023-02-02T13:32:53;101270.56;;;10.18;80.01
2549;BME280;1284;53.520;10.248;2023-02-02T13:35:27;101279.09;;;10.32;79.38
2549;BME280;1284;53.520;10.248;2023-02-02T13:38:13;101274.06;;;10.43;79.10
2549;BME280;1284;53.520;10.248;2023-02-02T13:40:42;101270.03;;;10.49;78.77
2549;BME280;1284;53.520;10.248;2023-02-02T13:53:55;101274.13;;;10.70;75.65
2549;BME280;1284;53.520;10.248;2023-02-02T14:02:40;101287.03;;;10.77;73.67
2549;BME280;1284;53.520;10.248;2023-02-02T14:05:20;101290.97;;;10.67;74.49
2549;BME280;1284;53.520;10.248;2023-02-02T14:07:46;101290.88;;;10.64;74.47
2549;BME280;1284;53.520;10.248;2023-02-02T14:12:50;101284.03;;;10.66;72.79
2549;BME280;1284;53.520;10.248;2023-02-02T14:15:16;101289.75;;;10.53;73.50
2549;BME280;1284;53.520;10.248;2023-02-02T14:38:02;101304.91;;;10.45;74.13
2549;BME280;1284;53.520;10.248;2023-02-02T14:40:47;101308.63;;;10.41;74.60
2549;BME280;1284;53.520;10.248;2023-02-02T14:43:24;101312.09;;;10.41;74.74
2549;BME280;1284;53.520;10.248;2023-02-02T14:48:41;101324.97;;;10.48;74.84
2549;BME280;1284;53.520;10.248;2023-02-02T14:51:17;101325.56;;;10.41;75.27
2549;BME280;1284;53.520;10.248;2023-02-02T14:53:57;101326.56;;;10.25;75.16
2549;BME280;1284;53.520;10.248;2023-02-02T14:56:57;101329.38;;;10.40;75.55
2549;BME280;1284;53.520;10.248;2023-02-02T14:59:36;101343.03;;;10.47;75.18
2549;BME280;1284;53.520;10.248;2023-02-02T15:02:24;101351.78;;;10.32;75.58
2549;BME280;1284;53.520;10.248;2023-02-02T15:07:51;101351.00;;;10.44;74.10
2549;BME280;1284;53.520;10.248;2023-02-02T15:13:09;101359.63;;;9.80;74.25
2549;BME280;1284;53.520;10.248;2023-02-02T15:15:40;101367.13;;;9.75;74.48
2549;BME280;1284;53.520;10.248;2023-02-02T15:18:17;101373.31;;;9.87;73.78
2549;BME280;1284;53.520;10.248;2023-02-02T15:20:52;101371.16;;;9.48;74.77
2549;BME280;1284;53.520;10.248;2023-02-02T15:23:28;101366.50;;;9.57;75.03
2549;BME280;1284;53.520;10.248;2023-02-02T15:28:53;101380.25;;;9.56;74.00
2549;BME280;1284;53.520;10.248;2023-02-02T15:31:56;101371.16;;;9.28;75.53
2549;BME280;1284;53.520;10.248;2023-02-02T15:34:27;101378.69;;;9.34;75.81
2549;BME280;1284;53.520;10.248;2023-02-02T15:36:57;101382.22;;;9.47;75.47
2549;BME280;1284;53.520;10.248;2023-02-02T15:39:40;101384.84;;;9.55;74.87
2549;BME280;1284;53.520;10.248;2023-02-02T15:42:19;101391.72;;;9.65;75.15
2549;BME280;1284;53.520;10.248;2023-02-02T15:45:05;101402.47;;;9.65;74.77
2549;BME280;1284;53.520;10.248;2023-02-02T15:47:36;101399.94;;;9.48;74.60
2549;BME280;1284;53.520;10.248;2023-02-02T15:50:17;101407.22;;;9.27;75.91
2549;BME280;1284;53.520;10.248;2023-02-02T15:52:48;101413.03;;;9.49;75.10
2549;BME280;1284;53.520;10.248;2023-02-02T15:55:32;101414.72;;;9.13;76.51
2549;BME280;1284;53.520;10.248;2023-02-02T15:57:58;101417.41;;;9.13;77.10
2549;BME280;1284;53.520;10.248;2023-02-02T16:00:33;101428.50;;;9.32;76.63
2549;BME280;1284;53.520;10.248;2023-02-02T16:03:17;101426.53;;;9.41;75.94
2549;BME280;1284;53.520;10.248;2023-02-02T16:08:16;101435.00;;;9.31;76.32
2549;BME280;1284;53.520;10.248;2023-02-02T16:10:42;101444.63;;;9.32;76.08
2549;BME280;1284;53.520;10.248;2023-02-02T16:13:20;101444.84;;;9.27;76.30
2549;BME280;1284;53.520;10.248;2023-02-02T16:15:54;101446.41;;;9.28;76.26
2549;BME280;1284;53.520;10.248;2023-02-02T16:18:20;101446.47;;;9.19;76.75
2549;BME280;1284;53.520;10.248;2023-02-02T16:20:46;101449.00;;;9.16;76.72
2549;BME280;1284;53.520;10.248;2023-02-02T16:23:14;101446.84;;;9.09;77.18
2549;BME280;1284;53.520;10.248;2023-02-02T16:25:48;101465.19;;;9.07;77.38
2549;BME280;1284;53.520;10.248;2023-02-02T16:28:16;101471.66;;;9.06;77.41
2549;BME280;1284;53.520;10.248;2023-02-02T16:30:43;101473.56;;;9.05;77.18
2549;BME280;1284;53.520;10.248;2023-02-02T16:33:43;101468.19;;;9.05;77.48
2549;BME280;1284;53.520;10.248;2023-02-02T16:36:26;101481.16;;;9.03;77.47
2549;BME280;1284;53.520;10.248;2023-02-02T16:38:55;101472.34;;;8.94;77.94
2549;BME280;1284;53.520;10.248;2023-02-02T16:41:32;101470.16;;;8.88;78.37
2549;BME280;1284;53.520;10.248;2023-02-02T16:44:37;101466.56;;;8.84;78.70
2549;BME280;1284;53.520;10.248;2023-02-02T16:47:07;101476.63;;;8.87;78.71
2549;BME280;1284;53.520;10.248;2023-02-02T16:52:48;101464.81;;;8.79;78.74
2549;BME280;1284;53.520;10.248;2023-02-02T16:55:16;101464.72;;;8.67;79.07
2549;BME280;1284;53.520;10.248;2023-02-02T16:57:44;101466.94;;;8.65;79.44
2549;BME280;1284;53.520;10.248;2023-02-02T17:00:21;101459.25;;;8.55;79.48
2549;BME280;1284;53.520;10.248;2023-02-02T17:02:50;101453.13;;;8.38;79.62
2549;BME280;1284;53.520;10.248;2023-02-02T17:05:48;101463.72;;;8.26;80.31
2549;BME280;1284;53.520;10.248;2023-02-02T17:08:24;101468.16;;;8.30;79.91
2549;BME280;1284;53.520;10.248;2023-02-02T17:11:05;101468.59;;;8.23;80.61
2549;BME280;1284;53.520;10.248;2023-02-02T17:15:58;101468.13;;;8.13;80.49
2549;BME280;1284;53.520;10.248;2023-02-02T17:18:24;101470.22;;;7.99;81.05
2549;BME280;1284;53.520;10.248;2023-02-02T17:20:51;101469.25;;;8.03;81.11
2549;BME280;1284;53.520;10.248;2023-02-02T17:23:24;101476.81;;;7.84;81.63
2549;BME280;1284;53.520;10.248;2023-02-02T17:25:51;101481.25;;;7.80;81.79
2549;BME280;1284;53.520;10.248;2023-02-02T17:28:19;101483.31;;;7.66;82.42
2549;BME280;1284;53.520;10.248;2023-02-02T17:30:48;101482.03;;;7.64;82.54
2549;BME280;1284;53.520;10.248;2023-02-02T17:33:17;101481.25;;;7.63;83.41
2549;BME280;1284;53.520;10.248;2023-02-02T17:35:44;101473.03;;;7.51;83.50
2549;BME280;1284;53.520;10.248;2023-02-02T17:38:10;101479.47;;;7.42;83.78
2549;BME280;1284;53.520;10.248;2023-02-02T17:40:36;101479.00;;;7.31;84.12
2549;BME280;1284;53.520;10.248;2023-02-02T17:43:02;101487.63;;;7.28;85.18
2549;BME280;1284;53.520;10.248;2023-02-02T17:45:28;101483.22;;;7.23;85.63
2549;BME280;1284;53.520;10.248;2023-02-02T17:47:54;101477.25;;;7.26;85.90
2549;BME280;1284;53.520;10.248;2023-02-02T17:50:19;101480.22;;;7.25;85.65
2549;BME280;1284;53.520;10.248;2023-02-02T17:52:46;101477.06;;;7.23;86.16
2549;BME280;1284;53.520;10.248;2023-02-02T17:55:24;101468.41;;;7.26;86.41
2549;BME280;1284;53.520;10.248;2023-02-02T17:57:52;101466.06;;;7.33;86.34
2549;BME280;1284;53.520;10.248;2023-02-02T18:02:46;101462.78;;;7.53;85.23
2549;BME280;1284;53.520;10.248;2023-02-02T18:05:12;101469.41;;;7.56;85.44
2549;BME280;1284;53.520;10.248;2023-02-02T18:07:40;101463.09;;;7.52;85.80
2549;BME280;1284;53.520;10.248;2023-02-02T18:10:07;101467.97;;;7.50;85.99
2549;BME280;1284;53.520;10.248;2023-02-02T18:12:32;101475.56;;;7.56;86.26
2549;BME280;1284;53.520;10.248;2023-02-02T18:15:04;101474.78;;;7.56;86.15
2549;BME280;1284;53.520;10.248;2023-02-02T18:17:30;101483.13;;;7.54;85.96
2549;BME280;1284;53.520;10.248;2023-02-02T18:19:56;101470.66;;;7.50;86.61
2549;BME280;1284;53.520;10.248;2023-02-02T18:22:22;101460.59;;;7.47;86.33
2549;BME280;1284;53.520;10.248;2023-02-02T18:24:48;101464.34;;;7.46;86.89
2549;BME280;1284;53.520;10.248;2023-02-02T18:27:14;101465.31;;;7.41;86.99
2549;BME280;1284;53.520;10.248;2023-02-02T18:29:40;101463.59;;;7.45;86.74
2549;BME280;1284;53.520;10.248;2023-02-02T18:32:06;101464.50;;;7.49;86.87
2549;BME280;1284;53.520;10.248;2023-02-02T18:34:35;101468.31;;;7.48;87.13
2549;BME280;1284;53.520;10.248;2023-02-02T18:37:02;101464.50;;;7.49;87.47
2549;BME280;1284;53.520;10.248;2023-02-02T18:39:28;101455.38;;;7.50;87.21
2549;BME280;1284;53.520;10.248;2023-02-02T18:41:54;101455.84;;;7.52;87.38
2549;BME280;1284;53.520;10.248;2023-02-02T18:44:19;101455.84;;;7.61;86.94
2549;BME280;1284;53.520;10.248;2023-02-02T18:46:46;101457.75;;;7.69;86.61
2549;BME280;1284;53.520;10.248;2023-02-02T18:49:12;101458.06;;;7.76;86.58
2549;BME280;1284;53.520;10.248;2023-02-02T18:51:37;101451.47;;;7.82;86.35
2549;BME280;1284;53.520;10.248;2023-02-02T18:54:03;101452.09;;;7.87;86.01
2549;BME280;1284;53.520;10.248;2023-02-02T18:56:28;101449.88;;;7.89;85.70
2549;BME280;1284;53.520;10.248;2023-02-02T18:58:54;101448.59;;;7.87;85.68
2549;BME280;1284;53.520;10.248;2023-02-02T19:01:22;101447.97;;;7.90;85.89
2549;BME280;1284;53.520;10.248;2023-02-02T19:03:49;101447.81;;;7.95;85.16
2549;BME280;1284;53.520;10.248;2023-02-02T19:06:15;101453.03;;;7.91;85.37